createdAt,value
2019-06-10T00:00:41.987Z,18.89
2019-06-10T00:03:12.062Z,18.83
2019-06-10T00:05:43.094Z,18.82
2019-06-10T00:08:14.277Z,18.76
2019-06-10T00:10:45.401Z,18.74
2019-06-10T00:13:20.759Z,18.68
2019-06-10T00:15:51.788Z,18.67
2019-06-10T00:18:38.723Z,18.73
2019-06-10T00:20:55.501Z,18.72
2019-06-10T00:23:26.538Z,18.71
2019-06-10T00:25:57.913Z,18.73
2019-06-10T00:28:30.975Z,18.70
2019-06-10T00:31:03.696Z,18.71
2019-06-10T00:33:34.297Z,18.70
2019-06-10T00:36:08.626Z,18.71
2019-06-10T00:38:41.197Z,18.67
2019-06-10T00:41:14.160Z,18.67
2019-06-10T00:43:44.663Z,18.66
2019-06-10T00:46:15.797Z,18.67
2019-06-10T00:48:46.804Z,18.65
2019-06-10T00:51:17.880Z,18.67
2019-06-10T00:53:51.391Z,18.67
2019-06-10T00:56:22.459Z,18.64
2019-06-10T00:58:53.475Z,18.62
2019-06-10T01:01:24.645Z,18.61
2019-06-10T01:03:55.714Z,18.66
2019-06-10T01:06:26.839Z,18.62
2019-06-10T01:09:00.511Z,18.56
2019-06-10T01:14:21.670Z,18.48
2019-06-10T01:16:53.369Z,18.48
2019-06-10T01:19:24.359Z,18.47
2019-06-10T01:21:55.402Z,18.47
2019-06-10T01:24:26.441Z,18.49
2019-06-10T01:26:57.501Z,18.51
2019-06-10T01:29:28.599Z,18.50
2019-06-10T01:32:01.584Z,18.48
2019-06-10T01:34:32.256Z,18.46
2019-06-10T01:37:03.312Z,18.42
2019-06-10T01:39:34.409Z,18.43
2019-06-10T01:42:06.467Z,18.42
2019-06-10T01:44:37.512Z,18.44
2019-06-10T01:47:08.703Z,18.41
2019-06-10T01:49:41.215Z,18.39
2019-06-10T01:52:15.090Z,18.43
2019-06-10T01:54:45.177Z,18.44
2019-06-10T01:57:17.060Z,18.41
2019-06-10T01:59:50.923Z,18.39
2019-06-10T02:02:24.647Z,18.41
2019-06-10T02:04:55.867Z,18.39
2019-06-10T02:07:26.967Z,18.40
2019-06-10T02:09:58.173Z,18.44
2019-06-10T02:12:31.487Z,18.42
2019-06-10T02:15:02.905Z,18.43
2019-06-10T02:17:33.958Z,18.40
2019-06-10T02:20:05.807Z,18.41
2019-06-10T02:22:36.869Z,18.42
2019-06-10T02:25:07.980Z,18.40
2019-06-10T02:27:41.351Z,18.39
2019-06-10T02:30:22.226Z,18.41
2019-06-10T02:32:44.534Z,18.38
2019-06-10T02:35:27.321Z,18.37
2019-06-10T02:37:48.280Z,18.38
2019-06-10T02:40:24.546Z,18.34
2019-06-10T02:42:54.066Z,18.35
2019-06-10T02:45:32.664Z,18.30
2019-06-10T02:47:58.728Z,18.27
2019-06-10T02:51:05.113Z,18.24
2019-06-10T02:53:37.154Z,18.22
2019-06-10T02:56:09.310Z,18.20
2019-06-10T02:58:44.666Z,18.20
2019-06-10T03:01:16.331Z,18.20
2019-06-10T03:03:49.528Z,18.17
2019-06-10T03:06:21.243Z,18.16
2019-06-10T03:08:54.726Z,18.11
2019-06-10T03:11:27.966Z,18.09
2019-06-10T03:13:57.836Z,18.06
2019-06-10T03:16:33.822Z,18.02
2019-06-10T03:19:06.091Z,18.03
2019-06-10T03:21:37.139Z,18.02
2019-06-10T03:24:08.102Z,18.01
2019-06-10T03:26:39.144Z,17.96
2019-06-10T03:29:12.935Z,17.94
2019-06-10T03:31:48.233Z,17.93
2019-06-10T03:34:18.093Z,17.94
2019-06-10T03:36:49.680Z,17.93
2019-06-10T03:39:21.399Z,17.90
2019-06-10T03:41:53.245Z,17.90
2019-06-10T03:44:26.370Z,17.89
2019-06-10T03:46:59.653Z,17.91
2019-06-10T03:49:32.155Z,17.89
2019-06-10T03:52:03.241Z,17.88
2019-06-10T03:54:34.333Z,17.86
2019-06-10T03:57:06.258Z,17.86
2019-06-10T03:59:37.310Z,17.84
2019-06-10T04:02:08.242Z,17.86
2019-06-10T04:04:39.422Z,17.85
2019-06-10T04:07:14.098Z,17.85
2019-06-10T04:09:43.409Z,17.85
2019-06-10T04:12:14.524Z,17.85
2019-06-10T04:14:45.651Z,17.86
2019-06-10T04:17:17.540Z,17.87
2019-06-10T04:20:02.658Z,17.87
2019-06-10T04:22:22.662Z,17.85
2019-06-10T04:24:54.272Z,17.85
2019-06-10T04:27:26.744Z,17.80
2019-06-10T04:29:58.708Z,17.81
2019-06-10T04:32:32.125Z,17.81
2019-06-10T04:35:02.843Z,17.81
2019-06-10T04:37:33.942Z,17.82
2019-06-10T04:40:06.851Z,17.85
2019-06-10T04:42:38.030Z,17.87
2019-06-10T04:45:09.067Z,17.85
2019-06-10T04:47:40.084Z,17.85
2019-06-10T04:50:23.606Z,17.85
2019-06-10T04:52:43.863Z,17.89
2019-06-10T04:55:14.933Z,17.92
2019-06-10T04:57:46.121Z,17.93
2019-06-10T05:00:17.162Z,17.96
2019-06-10T05:02:48.150Z,18.01
2019-06-10T05:05:19.154Z,18.01
2019-06-10T05:07:52.063Z,18.04
2019-06-10T05:10:24.104Z,18.05
2019-06-10T05:12:55.861Z,18.08
2019-06-10T05:15:28.415Z,18.13
2019-06-10T05:18:00.065Z,18.12
2019-06-10T05:20:51.209Z,18.13
2019-06-10T05:23:06.321Z,18.20
2019-06-10T05:25:37.330Z,18.19
2019-06-10T05:28:08.279Z,18.24
2019-06-10T05:30:39.282Z,18.33
2019-06-10T05:33:10.331Z,18.37
2019-06-10T05:35:42.676Z,18.42
2019-06-10T05:38:13.689Z,18.49
2019-06-10T05:40:44.786Z,18.56
2019-06-10T05:43:15.830Z,18.49
2019-06-10T05:45:46.985Z,18.55
2019-06-10T05:48:18.027Z,18.62
2019-06-10T05:51:00.181Z,18.67
2019-06-10T05:53:23.043Z,18.77
2019-06-10T05:55:54.647Z,18.82
2019-06-10T05:58:26.515Z,18.95
2019-06-10T06:00:58.519Z,19.19
2019-06-10T06:03:29.939Z,19.29
2019-06-10T06:06:03.169Z,19.52
2019-06-10T06:08:35.487Z,19.80
2019-06-10T06:11:07.126Z,19.84
2019-06-10T06:13:38.151Z,20.09
2019-06-10T06:16:12.566Z,20.26
2019-06-10T06:19:33.129Z,20.13
2019-06-10T06:22:12.944Z,20.13
2019-06-10T06:24:44.101Z,20.25
2019-06-10T06:27:19.411Z,20.28
2019-06-10T06:29:52.471Z,20.24
2019-06-10T06:32:23.710Z,20.36
2019-06-10T06:34:54.933Z,20.47
2019-06-10T06:37:26.871Z,20.55
2019-06-10T06:39:57.984Z,20.54
2019-06-10T06:42:29.396Z,20.62
2019-06-10T06:45:02.840Z,20.72
2019-06-10T06:50:34.322Z,20.87
2019-06-10T06:53:30.127Z,20.66
2019-06-10T06:55:39.827Z,20.65
2019-06-10T06:58:15.590Z,20.82
2019-06-10T07:01:03.721Z,20.88
2019-06-10T07:10:56.486Z,20.88
2019-06-10T07:13:27.916Z,21.06
2019-06-10T07:15:59.124Z,21.18
2019-06-10T07:18:49.544Z,21.31
2019-06-10T07:21:16.393Z,21.33
2019-06-10T07:23:47.455Z,21.44
2019-06-10T07:26:18.444Z,21.84
2019-06-10T07:28:49.533Z,22.10
2019-06-10T07:31:24.862Z,21.97
2019-06-10T07:33:53.285Z,22.27
2019-06-10T07:36:26.063Z,22.08
2019-06-10T07:38:57.186Z,21.97
2019-06-10T07:46:34.629Z,22.28
2019-06-10T07:49:19.215Z,22.58
2019-06-10T07:51:52.300Z,22.31
2019-06-10T07:56:53.756Z,22.07
2019-06-10T08:02:12.510Z,22.40
2019-06-10T08:04:55.331Z,22.10
2019-06-10T08:07:43.686Z,22.41
2019-06-10T08:14:27.692Z,23.52
2019-06-10T08:21:29.478Z,24.51
2019-06-10T08:27:05.787Z,24.96
2019-06-10T08:30:18.634Z,24.51
2019-06-10T08:32:53.319Z,24.17
2019-06-10T08:35:39.423Z,24.46
2019-06-10T08:38:05.722Z,24.97
2019-06-10T08:40:52.465Z,25.27
2019-06-10T08:49:14.153Z,25.79
2019-06-10T08:54:15.367Z,26.02
2019-06-10T08:59:19.792Z,25.61
2019-06-10T09:04:22.709Z,25.91
2019-06-10T09:09:23.871Z,26.27
2019-06-10T09:11:55.058Z,26.56
2019-06-10T09:14:26.877Z,26.88
2019-06-10T09:19:27.386Z,27.36
2019-06-10T09:24:27.399Z,27.61
2019-06-10T09:26:59.071Z,27.88
2019-06-10T09:29:32.934Z,28.06
2019-06-10T09:32:06.253Z,27.57
2019-06-10T09:34:35.295Z,27.92
2019-06-10T09:39:47.053Z,26.37
2019-06-10T09:42:18.982Z,26.84
2019-06-10T09:44:55.358Z,26.86
2019-06-10T09:52:26.396Z,27.17
2019-06-10T09:55:02.508Z,26.68
2019-06-10T09:57:34.131Z,26.98
2019-06-10T10:05:09.693Z,28.07
2019-06-10T10:10:12.676Z,28.29
2019-06-10T10:15:26.440Z,27.59
2019-06-10T10:20:18.445Z,26.57
2019-06-10T10:25:20.140Z,26.55
2019-06-10T10:27:57.266Z,26.43
2019-06-10T10:33:07.225Z,27.35
2019-06-10T10:35:38.396Z,27.63
2019-06-10T10:40:39.740Z,26.57
2019-06-10T10:45:43.558Z,27.88
2019-06-10T10:50:41.304Z,28.89
2019-06-10T10:55:42.537Z,28.12
2019-06-10T10:58:15.140Z,28.35
2019-06-10T11:03:18.673Z,29.22
2019-06-10T11:13:18.624Z,30.10
2019-06-10T11:15:49.646Z,29.92
2019-06-10T11:18:24.079Z,30.17
2019-06-10T11:20:55.238Z,30.37
2019-06-10T11:23:26.372Z,30.55
2019-06-10T11:25:58.899Z,30.54
2019-06-10T11:28:32.108Z,30.53
2019-06-10T11:31:03.863Z,30.63
2019-06-10T11:33:36.816Z,30.14
2019-06-10T11:36:07.857Z,29.84
2019-06-10T11:38:38.998Z,29.11
2019-06-10T11:41:10.032Z,29.12
2019-06-10T11:43:43.035Z,29.15
2019-06-10T11:46:16.195Z,29.18
2019-06-10T11:48:49.024Z,29.52
2019-06-10T11:51:20.203Z,30.04
2019-06-10T11:53:54.520Z,30.04
2019-06-10T11:56:24.082Z,30.30
2019-06-10T11:58:58.558Z,30.63
2019-06-10T12:01:28.947Z,30.09
2019-06-10T12:04:01.164Z,29.56
2019-06-10T12:06:33.968Z,28.87
2019-06-10T12:09:09.536Z,29.18
2019-06-10T12:11:43.478Z,29.60
2019-06-10T12:14:13.400Z,29.26
2019-06-10T12:17:17.490Z,29.30
2019-06-10T12:19:18.254Z,28.51
2019-06-10T12:21:49.841Z,28.48
2019-06-10T12:24:22.898Z,28.79
2019-06-10T12:26:55.507Z,28.99
2019-06-10T12:29:29.218Z,28.83
2019-06-10T12:34:33.260Z,28.70
2019-06-10T12:37:10.671Z,28.42
2019-06-10T12:42:10.980Z,27.86
2019-06-10T12:47:10.445Z,27.82
2019-06-10T12:52:14.482Z,28.48
2019-06-10T12:57:18.226Z,28.25
2019-06-10T13:02:24.729Z,28.30
2019-06-10T13:07:46.037Z,28.03
2019-06-10T13:10:42.976Z,27.73
2019-06-10T13:13:13.438Z,27.75
2019-06-10T13:15:44.542Z,27.80
2019-06-10T13:18:19.527Z,28.18
2019-06-10T13:20:49.883Z,28.37
2019-06-10T13:23:29.008Z,28.33
2019-06-10T13:26:03.200Z,28.32
2019-06-10T13:28:25.827Z,28.32
2019-06-10T13:30:57.086Z,28.44
2019-06-10T13:35:58.698Z,28.27
2019-06-10T13:40:59.743Z,28.20
2019-06-10T13:46:03.104Z,28.41
2019-06-10T13:51:10.104Z,28.51
2019-06-10T13:53:39.283Z,28.76
2019-06-10T13:58:39.200Z,28.97
2019-06-10T14:01:19.759Z,29.11
2019-06-10T14:03:45.055Z,28.79
2019-06-10T14:06:37.064Z,28.40
2019-06-10T14:11:26.861Z,27.75
2019-06-10T14:14:18.075Z,27.55
2019-06-10T14:16:48.445Z,27.55
2019-06-10T14:24:22.541Z,27.54
2019-06-10T14:29:26.330Z,27.45
2019-06-10T14:34:27.501Z,27.61
2019-06-10T14:39:32.945Z,27.83
2019-06-10T14:44:34.220Z,27.57
2019-06-10T14:47:13.119Z,27.35
2019-06-10T14:49:45.380Z,27.42
2019-06-10T14:52:19.863Z,27.52
2019-06-10T14:54:53.240Z,27.58
2019-06-10T14:57:28.791Z,27.66
2019-06-10T15:04:58.936Z,27.91
2019-06-10T15:10:03.415Z,27.48
2019-06-10T15:15:03.225Z,27.68
2019-06-10T15:20:05.941Z,27.48
2019-06-10T15:22:39.061Z,27.45
2019-06-10T15:25:13.775Z,27.12
2019-06-10T15:30:22.629Z,27.00
2019-06-10T15:35:19.593Z,26.85
2019-06-10T15:40:19.721Z,26.87
2019-06-10T15:45:22.691Z,26.86
2019-06-10T15:47:53.968Z,26.61
2019-06-10T15:50:27.770Z,26.69
2019-06-10T15:56:04.949Z,26.82
2019-06-10T16:00:37.070Z,26.41
2019-06-10T16:08:07.241Z,26.59
2019-06-10T16:15:38.621Z,26.73
2019-06-10T16:20:44.066Z,25.19
2019-06-10T16:23:19.877Z,24.55
2019-06-10T16:25:53.349Z,23.62
2019-06-10T16:28:29.357Z,22.96
2019-06-10T16:31:05.358Z,22.28
2019-06-10T16:36:27.552Z,23.42
2019-06-10T16:39:24.123Z,23.67
2019-06-10T16:47:32.542Z,23.73
2019-06-10T16:50:09.147Z,23.75
2019-06-10T16:57:58.807Z,23.49
2019-06-10T17:02:54.834Z,23.69
2019-06-10T17:05:33.755Z,23.64
2019-06-10T17:08:05.780Z,23.73
2019-06-10T17:13:12.863Z,23.47
2019-06-10T17:23:28.006Z,23.08
2019-06-10T17:28:36.653Z,22.87
2019-06-10T17:38:36.097Z,22.80
2019-06-10T17:41:08.806Z,22.48
2019-06-10T17:46:12.518Z,22.52
2019-06-10T17:51:12.632Z,22.55
2019-06-10T17:56:16.756Z,22.51
2019-06-10T18:01:22.222Z,22.35
2019-06-10T18:06:25.898Z,22.52
2019-06-10T18:11:29.849Z,22.49
2019-06-10T18:16:36.554Z,22.49
2019-06-10T18:19:09.794Z,22.60
2019-06-10T18:21:41.129Z,22.65
2019-06-10T18:24:15.985Z,22.74
2019-06-10T18:26:49.443Z,22.66
2019-06-10T18:29:25.636Z,22.61
2019-06-10T18:31:57.902Z,22.72
2019-06-10T18:34:38.524Z,22.69
2019-06-10T18:37:13.676Z,22.66
2019-06-10T18:39:45.908Z,22.72
2019-06-10T18:47:28.604Z,22.90
2019-06-10T18:54:58.057Z,23.00
2019-06-10T19:00:07.103Z,22.97
2019-06-10T19:05:07.963Z,22.53
2019-06-10T19:10:23.119Z,22.29
2019-06-10T19:15:23.135Z,21.83
2019-06-10T19:17:56.315Z,21.73
2019-06-10T19:25:37.263Z,21.82
2019-06-10T19:28:12.234Z,21.79
2019-06-10T19:30:44.870Z,21.92
2019-06-10T19:33:17.154Z,21.98
2019-06-10T19:35:48.638Z,21.92
2019-06-10T19:38:23.067Z,21.88
2019-06-10T19:40:52.687Z,21.84
2019-06-10T19:45:57.833Z,21.75
2019-06-10T19:51:00.020Z,21.55
2019-06-10T19:56:02.907Z,21.59
2019-06-10T20:01:12.750Z,21.48
2019-06-10T20:06:13.820Z,20.92
2019-06-10T20:14:06.636Z,20.54
